Time;durP1;ratioP1;P1;durP2;ratioP2;P2;SDS_P1;SDS_P2;PMS_P1;PMS_P2;Temp;Humidity;BMP_temperature;BMP_pressure;BME280_temperature;BME280_humidity;BME280_pressure;Samples;Min_cycle;Max_cycle;Signal;HPM_P1;HPM_P2
2020/12/21 00:06:09;;;;;;;1999.90;999.90;;;;;;;6.78;76.20;101737.72;15825200;28;20048;-58
2020/12/21 00:13:43;;;;;;;1999.90;999.90;;;;;;;7.00;75.52;101742.91;15816837;28;20035;-57
2020/12/21 00:21:16;;;;;;;;;;;;;;;7.19;75.24;101735.59;15833058;28;20116;-58
2020/12/21 00:28:50;;;;;;;1999.90;999.90;;;;;;;7.15;75.00;101750.31;15847340;28;20001;-59
2020/12/21 00:36:23;;;;;;;1999.90;999.90;;;;;;;7.00;75.62;101742.91;15796784;28;20110;-56
2020/12/21 00:43:57;;;;;;;1999.90;999.90;;;;;;;7.01;75.78;101761.22;15824067;28;20078;-56
2020/12/21 00:51:31;;;;;;;1999.90;999.90;;;;;;;7.12;75.15;101764.78;15839888;28;20508;-56
2020/12/21 00:59:05;;;;;;;1999.90;999.90;;;;;;;7.13;75.36;101764.47;15847308;28;20123;-57
2020/12/21 01:06:38;;;;;;;1999.90;999.90;;;;;;;6.95;76.08;101773.44;15799190;28;20052;-57
2020/12/21 01:14:11;;;;;;;1999.90;999.90;;;;;;;6.80;77.23;101762.41;15798550;28;20086;-56
2020/12/21 01:21:44;;;;;;;1999.90;999.90;;;;;;;6.91;77.31;101756.53;15790564;28;20036;-55
2020/12/21 01:29:17;;;;;;;1999.90;999.90;;;;;;;6.94;76.99;101766.22;15853291;28;20051;-56
2020/12/21 01:36:50;;;;;;;1999.90;999.90;;;;;;;7.12;76.91;101767.56;15827085;28;20043;-58
2020/12/21 01:44:24;;;;;;;1999.90;999.90;;;;;;;7.16;76.76;101771.41;15807916;28;20143;-59
2020/12/21 01:51:57;;;;;;;1999.90;999.90;;;;;;;7.35;76.39;101754.94;15859935;28;20062;-56
2020/12/21 01:59:31;;;;;;;1999.90;999.90;;;;;;;7.29;76.97;101754.13;15846798;28;20059;-56
2020/12/21 02:07:05;;;;;;;1999.90;999.90;;;;;;;7.08;77.11;101755.34;15811165;28;20044;-58
2020/12/21 02:14:39;;;;;;;1999.90;999.90;;;;;;;7.12;77.00;101768.38;15824266;28;20513;-57
2020/12/21 02:22:13;;;;;;;1999.90;999.90;;;;;;;7.17;77.10;101782.22;15857852;28;20096;-54
2020/12/21 02:29:47;;;;;;;1999.90;999.90;;;;;;;7.19;77.18;101788.34;15788451;28;20614;-55
2020/12/21 02:37:21;;;;;;;1999.90;999.90;;;;;;;7.34;77.15;101789.38;15813189;22;20040;-75
2020/12/21 02:44:54;;;;;;;1999.90;999.90;;;;;;;7.27;77.13;101784.13;15768938;28;20032;-75
2020/12/21 02:52:31;;;;;;;1999.90;999.90;;;;;;;7.22;77.71;101793.31;15747603;23;20040;-65
2020/12/21 03:00:06;;;;;;;1999.90;999.90;;;;;;;7.06;77.89;101775.06;15750874;28;20044;-65
2020/12/21 03:07:55;;;;;;;1999.90;999.90;;;;;;;7.12;77.78;101781.44;15696581;28;20049;-66
2020/12/21 03:15:28;;;;;;;1999.90;999.90;;;;;;;7.03;77.87;101789.50;15706123;28;20028;-66
2020/12/21 03:23:02;;;;;;;1999.90;999.90;;;;;;;7.11;77.34;101788.09;15694749;28;20041;-64
2020/12/21 03:30:35;;;;;;;1999.90;999.90;;;;;;;7.23;76.64;101781.09;15719087;28;20309;-65
2020/12/21 03:38:09;;;;;;;1999.90;999.90;;;;;;;7.12;77.54;101782.25;15688500;28;20736;-66
2020/12/21 03:45:41;;;;;;;1999.90;999.90;;;;;;;7.28;77.15;101771.06;15715063;28;20497;-61
2020/12/21 03:53:15;;;;;;;1999.90;999.90;;;;;;;7.21;77.35;101771.41;15704743;28;20048;-61
2020/12/21 04:00:48;;;;;;;1999.90;999.90;;;;;;;7.19;77.17;101777.25;15708037;28;20385;-63
2020/12/21 04:08:22;;;;;;;1999.90;999.90;;;;;;;7.10;77.14;101784.50;15707143;28;20048;-64
2020/12/21 04:15:55;;;;;;;1999.90;999.90;;;;;;;6.91;77.46;101780.69;15685551;28;20049;-63
2020/12/21 04:23:29;;;;;;;1999.90;999.90;;;;;;;6.95;77.58;101784.53;15711414;28;20136;-64
2020/12/21 04:31:03;;;;;;;1999.90;999.90;;;;;;;6.85;77.40;101779.84;15730501;28;20458;-64
2020/12/21 04:38:38;;;;;;;1999.90;999.90;;;;;;;6.65;77.54;101777.94;15689277;28;20051;-64
2020/12/21 04:46:11;;;;;;;1999.90;999.90;;;;;;;6.59;77.72;101769.94;15703763;28;20850;-64
2020/12/21 04:53:45;;;;;;;1999.90;999.90;;;;;;;6.62;77.53;101772.16;15693465;28;20555;-63
2020/12/21 05:01:18;;;;;;;1999.90;999.90;;;;;;;6.55;78.02;101774.38;15704327;28;20062;-64
2020/12/21 05:09:01;;;;;;;1999.90;999.90;;;;;;;6.58;77.65;101762.75;15707766;28;20044;-63
2020/12/21 05:16:34;;;;;;;1999.90;999.90;;;;;;;6.51;77.46;101763.03;15722825;28;20452;-63
2020/12/21 05:24:07;;;;;;;1999.90;999.90;;;;;;;6.43;77.41;101776.63;15712676;28;20144;-63
2020/12/21 05:31:48;;;;;;;1999.90;999.90;;;;;;;6.49;77.35;101773.56;15710453;28;20056;-66
2020/12/21 05:39:22;;;;;;;1999.90;999.90;;;;;;;6.55;77.10;101774.38;15696997;28;20046;-64
2020/12/21 05:46:54;;;;;;;1999.90;999.90;;;;;;;6.32;77.56;101781.34;15705515;28;20048;-64
2020/12/21 05:54:28;;;;;;;1999.90;999.90;;;;;;;6.33;76.91;101783.00;15730002;28;20174;-64
2020/12/21 06:02:01;;;;;;;1999.90;999.90;;;;;;;6.21;76.98;101786.06;15698126;28;20105;-64
2020/12/21 06:09:35;;;;;;;1999.90;999.90;;;;;;;6.01;77.25;101770.28;15690320;28;20490;-66
2020/12/21 06:17:10;;;;;;;1999.90;999.90;;;;;;;6.00;77.03;101788.00;15697790;28;20497;-65
2020/12/21 06:24:43;;;;;;;1999.90;999.90;;;;;;;5.92;76.07;101790.50;15693093;28;20441;-65
2020/12/21 06:32:16;;;;;;;1999.90;999.90;;;;;;;5.73;76.55;101791.00;15701290;28;20140;-64
2020/12/21 06:39:59;;;;;;;1999.90;999.90;;;;;;;5.76;76.80;101804.31;15658989;28;20053;-64
2020/12/21 06:47:32;;;;;;;1999.90;999.90;;;;;;;5.68;76.88;101802.06;15701908;28;20057;-64
2020/12/21 06:55:05;;;;;;;1999.90;999.90;;;;;;;5.48;77.35;101793.72;15627929;28;20073;-64
2020/12/21 07:02:38;;;;;;;;;;;;;;;5.67;76.58;101817.03;15627681;28;20049;-65
2020/12/21 07:10:13;;;;;;;1999.90;999.90;;;;;;;5.43;77.47;101822.22;15628293;28;19921;-64
2020/12/21 07:17:45;;;;;;;1999.90;999.90;;;;;;;5.34;77.92;101828.56;15627746;28;20054;-65
2020/12/21 07:25:22;;;;;;;1999.90;999.90;;;;;;;5.56;76.74;101822.81;15609875;28;20072;-66
2020/12/21 07:32:55;;;;;;;1999.90;999.90;;;;;;;5.49;77.29;101825.81;15627804;28;20102;-63
2020/12/21 07:40:29;;;;;;;1999.90;999.90;;;;;;;5.62;76.15;101841.09;15631238;28;20053;-63
2020/12/21 07:48:01;;;;;;;;;;;;;;;5.66;76.11;101834.75;15647116;28;20675;-67
2020/12/21 07:55:35;;;;;;;1999.90;999.90;;;;;;;5.92;75.89;101837.59;15678629;28;20035;-64
2020/12/21 08:03:11;;;;;;;1999.90;999.90;;;;;;;6.05;76.09;101851.75;15639681;28;20519;-66
2020/12/21 08:10:55;;;;;;;1999.90;999.90;;;;;;;5.96;75.84;101847.03;15672669;28;20211;-65
2020/12/21 08:18:27;;;;;;;1999.90;999.90;;;;;;;6.03;75.55;101853.13;15665755;28;20044;-64
2020/12/21 08:26:13;;;;;;;1999.90;999.90;;;;;;;6.22;75.28;101858.97;15681464;28;20094;-64
2020/12/21 08:34:01;;;;;;;1999.90;999.90;;;;;;;6.27;75.07;101858.97;15654417;28;20076;-65
2020/12/21 08:41:40;;;;;;;1999.90;999.90;;;;;;;6.23;75.87;101864.22;15689091;28;20554;-65
2020/12/21 08:49:13;;;;;;;1999.90;999.90;;;;;;;6.17;76.42;101861.75;15690013;28;20048;-65
2020/12/21 08:56:58;;;;;;;1999.90;999.90;;;;;;;6.52;75.01;101866.47;15682945;28;20083;-62
2020/12/21 09:04:33;;;;;;;1999.90;999.90;;;;;;;6.88;74.79;101873.66;15649083;28;20056;-61
2020/12/21 09:12:09;;;;;;;1999.90;999.90;;;;;;;7.37;73.54;101872.09;15663289;28;20053;-58
2020/12/21 09:19:42;;;;;;;1999.90;999.90;;;;;;;8.28;71.10;101876.31;15657334;28;20064;-63
2020/12/21 09:27:15;;;;;;;1999.90;999.90;;;;;;;9.43;66.01;101877.44;15662395;28;20112;-65
2020/12/21 09:34:48;;;;;;;1999.90;999.90;;;;;;;10.61;63.23;101871.84;15682685;28;20095;-64
2020/12/21 09:42:22;;;;;;;1999.90;999.90;;;;;;;12.34;57.99;101880.31;15682503;28;20059;-63
2020/12/21 09:49:55;;;;;;;1999.90;999.90;;;;;;;12.35;57.71;101878.34;15680215;28;20045;-64
2020/12/21 09:57:29;;;;;;;1999.90;999.90;;;;;;;12.68;56.88;101870.50;15724034;28;20482;-64
2020/12/21 10:05:01;;;;;;;1999.90;999.90;;;;;;;12.33;56.81;101849.84;15718040;28;20299;-64
2020/12/21 10:12:36;;;;;;;1999.90;999.90;;;;;;;13.06;55.54;101851.28;15678241;28;20059;-62
2020/12/21 10:20:09;;;;;;;1999.90;999.90;;;;;;;11.44;59.46;101840.06;15678301;28;20041;-64
2020/12/21 10:27:42;;;;;;;1999.90;999.90;;;;;;;11.96;59.08;101845.41;15660268;28;20099;-61
2020/12/21 10:35:15;;;;;;;1999.90;999.90;;;;;;;11.59;59.55;101833.34;15661538;28;20052;-61
2020/12/21 10:42:48;;;;;;;1999.90;999.90;;;;;;;11.69;59.58;101821.94;15636324;28;20069;-61
2020/12/21 10:50:21;;;;;;;1999.90;999.90;;;;;;;11.45;59.06;101804.56;15677161;28;20055;-63
2020/12/21 10:57:55;;;;;;;1999.90;999.90;;;;;;;11.83;59.20;101799.56;15659539;28;20063;-62
2020/12/21 11:05:28;;;;;;;1999.90;999.90;;;;;;;13.00;55.34;101818.94;15675022;28;20098;-62
2020/12/21 11:13:02;;;;;;;1999.90;999.90;;;;;;;14.29;52.76;101801.56;15648172;28;20045;-62
2020/12/21 11:20:35;;;;;;;1999.90;999.90;;;;;;;13.53;54.05;101785.16;15668519;28;20406;-62
2020/12/21 11:28:10;;;;;;;1999.90;999.90;;;;;;;13.75;54.20;101798.22;15687504;28;20056;-63
2020/12/21 11:35:42;;;;;;;1999.90;999.90;;;;;;;13.01;55.74;101799.00;15682384;28;20448;-65
2020/12/21 11:43:17;;;;;;;1999.90;999.90;;;;;;;12.64;56.76;101777.91;15685581;28;20106;-65
2020/12/21 11:50:50;;;;;;;1999.90;999.90;;;;;;;13.06;55.07;101781.22;15666619;28;20384;-65
2020/12/21 11:58:25;;;;;;;1999.90;999.90;;;;;;;13.59;53.92;101774.63;15666889;28;20037;-66
2020/12/21 12:05:57;;;;;;;1999.90;999.90;;;;;;;12.55;57.17;101768.63;15667108;28;20053;-62
2020/12/21 12:13:31;;;;;;;1999.90;999.90;;;;;;;12.80;56.09;101755.09;15665721;28;20520;-64
2020/12/21 12:21:04;;;;;;;1999.90;999.90;;;;;;;12.63;56.56;101747.44;15683206;28;20494;-66
2020/12/21 12:28:38;;;;;;;1999.90;999.90;;;;;;;14.82;51.99;101749.72;15682520;28;20458;-65
2020/12/21 12:36:15;;;;;;;1999.90;999.90;;;;;;;20.63;38.34;101757.09;15690771;28;20055;-64
2020/12/21 12:43:49;;;;;;;1999.90;999.90;;;;;;;18.54;42.05;101747.38;15690763;28;20452;-65
2020/12/21 12:51:22;;;;;;;1999.90;999.90;;;;;;;21.61;36.22;101749.81;15671381;28;20055;-63
2020/12/21 12:58:56;;;;;;;1999.90;999.90;;;;;;;16.80;44.86;101749.31;15725377;28;20048;-61
2020/12/21 13:06:28;;;;;;;;;;;;;;;13.30;53.56;101752.81;15742642;28;20049;-63
2020/12/21 13:14:02;;;;;;;1999.90;999.90;;;;;;;11.87;57.57;101735.41;15742588;28;19920;-63
2020/12/21 13:21:34;;;;;;;1999.90;999.90;;;;;;;12.51;56.82;101728.44;15693083;28;20441;-65
2020/12/21 13:29:08;;;;;;;1999.90;999.90;;;;;;;11.92;58.71;101724.13;15672221;28;20044;-64
2020/12/21 13:36:41;;;;;;;1999.90;999.90;;;;;;;11.39;60.37;101711.63;15671923;28;20079;-63
2020/12/21 13:44:15;;;;;;;1999.90;999.90;;;;;;;11.01;61.86;101718.63;15682683;28;21658;-64
2020/12/21 13:51:49;;;;;;;1999.90;999.90;;;;;;;10.18;64.17;101703.75;15666817;28;20393;-62
2020/12/21 13:59:22;;;;;;;1999.90;999.90;;;;;;;10.08;64.98;101702.81;15692273;28;20394;-64
2020/12/21 14:06:55;;;;;;;1999.90;999.90;;;;;;;9.83;66.05;101695.72;15648012;28;20049;-64
2020/12/21 14:14:29;;;;;;;1999.90;999.90;;;;;;;9.54;67.04;101681.16;15695648;28;20439;-61
2020/12/21 14:22:02;;;;;;;1999.90;999.90;;;;;;;9.32;67.53;101675.38;15663415;28;20098;-64
2020/12/21 14:29:36;;;;;;;1999.90;999.90;;;;;;;9.00;68.74;101676.09;15658116;28;20048;-62
2020/12/21 14:37:09;;;;;;;1999.90;999.90;;;;;;;8.66;69.70;101674.31;15676502;28;20053;-61
2020/12/21 14:44:42;;;;;;;1999.90;999.90;;;;;;;8.55;70.19;101673.59;15653759;28;20045;-66
2020/12/21 14:52:16;;;;;;;1999.90;999.90;;;;;;;8.50;70.23;101681.16;15728833;22;20052;-75
2020/12/21 14:59:49;;;;;;;1999.90;999.90;;;;;;;8.29;70.15;101673.03;15784983;28;20453;-76
2020/12/21 15:07:22;;;;;;;1999.90;999.90;;;;;;;8.10;70.69;101669.31;15773345;22;602278;-63
2020/12/21 15:14:56;;;;;;;1999.90;999.90;;;;;;;8.13;70.42;101659.56;15756898;28;20502;-60
2020/12/21 15:22:28;;;;;;;1999.90;999.90;;;;;;;8.07;70.92;101653.25;15684134;28;20147;-62
2020/12/21 15:30:02;;;;;;;1999.90;999.90;;;;;;;7.89;71.68;101643.69;15704056;28;20090;-62
2020/12/21 15:37:35;;;;;;;;;;;;;;;7.80;72.01;101632.34;15726568;28;20048;-62
2020/12/21 15:45:09;;;;;;;1999.90;999.90;;;;;;;7.83;71.54;101630.97;15683681;28;19936;-63
2020/12/21 15:52:41;;;;;;;1999.90;999.90;;;;;;;7.81;71.47;101614.59;15713779;28;20068;-62
2020/12/21 16:00:16;;;;;;;1999.90;999.90;;;;;;;7.74;71.50;101604.94;15662621;28;20060;-62
2020/12/21 16:07:48;;;;;;;1999.90;999.90;;;;;;;7.46;73.16;101598.22;15755184;28;20090;-62
2020/12/21 16:15:22;;;;;;;1999.90;999.90;;;;;;;7.43;73.18;101582.16;15704811;28;20053;-62
2020/12/21 16:22:57;;;;;;;1999.90;999.90;;;;;;;7.50;72.79;101582.63;15717539;28;20060;-62
2020/12/21 16:30:31;;;;;;;1999.90;999.90;;;;;;;7.17;74.58;101571.25;15677764;28;20048;-63
2020/12/21 16:38:04;;;;;;;1999.90;999.90;;;;;;;7.58;73.00;101559.78;15698307;28;20442;-62
2020/12/21 16:45:37;;;;;;;1999.90;999.90;;;;;;;7.50;73.15;101557.63;15736227;28;20123;-60
2020/12/21 16:53:10;;;;;;;1999.90;999.90;;;;;;;7.41;73.27;101546.34;15718656;28;20068;-63
2020/12/21 17:00:44;;;;;;;1999.90;999.90;;;;;;;7.34;73.27;101537.53;15736282;28;20473;-63
2020/12/21 17:08:17;;;;;;;1999.90;999.90;;;;;;;7.10;73.68;101526.38;15735474;28;20381;-61
2020/12/21 17:15:51;;;;;;;1999.90;999.90;;;;;;;7.04;74.05;101516.41;15772410;28;20555;-62
2020/12/21 17:23:23;;;;;;;1999.90;999.90;;;;;;;7.05;73.84;101506.13;15787169;28;20100;-62
2020/12/21 17:30:57;;;;;;;1999.90;999.90;;;;;;;7.01;73.69;101499.53;15779016;28;20142;-62
2020/12/21 17:38:29;;;;;;;1999.90;999.90;;;;;;;6.66;75.30;101488.38;15758570;28;20048;-62
2020/12/21 17:46:03;;;;;;;1999.90;999.90;;;;;;;6.70;75.01;101496.16;15793965;28;20171;-62
2020/12/21 17:53:35;;;;;;;1999.90;999.90;;;;;;;6.64;74.88;101473.97;15750704;28;20550;-62
2020/12/21 18:01:09;;;;;;;1999.90;999.90;;;;;;;6.50;74.46;101464.66;15678804;28;20052;-62
2020/12/21 18:08:42;;;;;;;1999.90;999.90;;;;;;;6.54;74.49;101462.97;15669030;28;20365;-62
2020/12/21 18:16:16;;;;;;;1999.90;999.90;;;;;;;6.42;74.30;101462.50;15723725;28;20036;-62
2020/12/21 18:23:50;;;;;;;1999.90;999.90;;;;;;;6.30;74.73;101442.63;15740028;28;20052;-62
2020/12/21 18:31:23;;;;;;;1999.90;999.90;;;;;;;6.46;73.93;101435.00;15708689;28;20187;-62
2020/12/21 18:38:56;;;;;;;1999.90;999.90;;;;;;;6.53;73.25;101418.88;15687495;28;20087;-62
2020/12/21 18:46:38;;;;;;;1999.90;999.90;;;;;;;6.36;74.04;101405.44;15694528;28;20424;-62
2020/12/21 18:54:10;;;;;;;1999.90;999.90;;;;;;;6.31;74.18;101386.88;15693868;28;20438;-61
2020/12/21 19:01:44;;;;;;;1999.90;999.90;;;;;;;6.45;73.57;101372.34;15716756;28;20083;-62
2020/12/21 19:09:16;;;;;;;1999.90;999.90;;;;;;;6.46;72.80;101374.88;15663471;28;20118;-63
2020/12/21 19:16:50;;;;;;;1999.90;999.90;;;;;;;6.49;72.50;101370.69;15672575;28;20041;-63
2020/12/21 19:24:22;;;;;;;1999.90;999.90;;;;;;;6.51;72.24;101371.22;15668114;28;20491;-62
2020/12/21 19:31:56;;;;;;;1999.90;999.90;;;;;;;6.56;71.82;101368.38;15678824;28;20037;-62
2020/12/21 19:39:30;;;;;;;1999.90;999.90;;;;;;;6.32;72.54;101358.03;15646370;28;20053;-63
2020/12/21 19:47:03;;;;;;;1999.90;999.90;;;;;;;6.59;71.76;101345.63;15681258;28;20044;-63
2020/12/21 19:54:36;;;;;;;1999.90;999.90;;;;;;;6.49;72.02;101338.25;15677226;28;20044;-62
2020/12/21 20:02:09;;;;;;;1999.90;999.90;;;;;;;6.46;72.36;101341.59;15685574;28;20040;-62
2020/12/21 20:09:42;;;;;;;1999.90;999.90;;;;;;;6.20;72.96;101327.09;15745270;28;20052;-63
2020/12/21 20:17:20;;;;;;;1999.90;999.90;;;;;;;6.24;72.58;101308.78;15712276;28;20127;-62
2020/12/21 20:24:56;;;;;;;1999.90;999.90;;;;;;;6.24;72.85;101294.09;15726331;28;20051;-61
2020/12/21 20:32:32;;;;;;;1999.90;999.90;;;;;;;6.37;72.80;101276.81;15726550;28;20045;-62
2020/12/21 20:40:06;;;;;;;1999.90;999.90;;;;;;;6.37;72.63;101265.72;15716624;28;20555;-62
2020/12/21 20:47:40;;;;;;;1999.90;999.90;;;;;;;6.47;72.08;101267.56;15757734;28;20131;-63
2020/12/21 20:55:21;;;;;;;1999.90;999.90;;;;;;;6.59;71.81;101268.81;15727657;28;20076;-61
2020/12/21 21:02:55;;;;;;;1999.90;999.90;;;;;;;6.63;71.45;101244.09;15755945;28;20044;-60
2020/12/21 21:10:29;;;;;;;1999.90;999.90;;;;;;;6.78;71.54;101221.75;15753226;28;20447;-60
2020/12/21 21:18:03;;;;;;;1999.90;999.90;;;;;;;6.83;71.48;101190.34;15736538;28;20468;-64
2020/12/21 21:25:37;;;;;;;1999.90;999.90;;;;;;;6.72;71.65;101188.81;15735597;28;20562;-63
2020/12/21 21:33:10;;;;;;;1999.90;999.90;;;;;;;6.76;71.82;101179.59;15719201;28;20033;-63
2020/12/21 21:40:43;;;;;;;1999.90;999.90;;;;;;;6.73;72.67;101160.78;15711560;28;20120;-64
2020/12/21 21:48:16;;;;;;;1999.90;999.90;;;;;;;6.66;73.24;101155.56;15693347;28;20473;-65
2020/12/21 21:55:49;;;;;;;1999.90;999.90;;;;;;;6.75;73.31;101157.69;15680562;28;20235;-64
2020/12/21 22:03:23;;;;;;;1999.90;999.90;;;;;;;6.79;73.34;101131.88;15674594;28;20071;-63
2020/12/21 22:10:56;;;;;;;1999.90;999.90;;;;;;;6.71;73.57;101110.31;15717106;28;20044;-63
2020/12/21 22:18:29;;;;;;;1999.90;999.90;;;;;;;7.00;72.44;101110.22;15715265;28;20041;-63
2020/12/21 22:26:02;;;;;;;1999.90;999.90;;;;;;;6.83;73.08;101054.41;15686514;28;20045;-63
2020/12/21 22:33:36;;;;;;;1999.90;999.90;;;;;;;7.07;72.02;101021.03;15726806;28;20040;-64
2020/12/21 22:41:08;;;;;;;1999.90;999.90;;;;;;;7.18;72.23;101030.81;15679963;28;20044;-63
2020/12/21 22:48:42;;;;;;;1999.90;999.90;;;;;;;7.11;72.46;101027.63;15674909;28;20457;-61
2020/12/21 22:56:15;;;;;;;1999.90;999.90;;;;;;;7.21;71.84;101035.78;15711102;28;20041;-62
2020/12/21 23:03:48;;;;;;;1999.90;999.90;;;;;;;7.34;71.96;101036.97;15702465;28;20482;-63
2020/12/21 23:11:21;;;;;;;1999.90;999.90;;;;;;;7.43;71.85;100994.31;15706179;28;20078;-61
2020/12/21 23:18:54;;;;;;;1999.90;999.90;;;;;;;7.41;71.61;100974.38;15685060;28;20060;-62
2020/12/21 23:26:29;;;;;;;1999.90;999.90;;;;;;;7.31;72.15;100957.91;15705789;28;20136;-61
2020/12/21 23:34:03;;;;;;;1999.90;999.90;;;;;;;7.55;71.14;100945.78;15706168;28;20053;-62
2020/12/21 23:41:39;;;;;;;1999.90;999.90;;;;;;;7.44;71.60;100920.16;15722619;28;20469;-61
2020/12/21 23:49:13;;;;;;;1999.90;999.90;;;;;;;7.79;70.66;100913.06;15702732;28;20067;-62
2020/12/21 23:56:45;;;;;;;1999.90;999.90;;;;;;;7.82;70.46;100906.91;15702508;28;20091;-63
